sensor_id;sensor_type;location;lat;lon;timestamp;pressure;altitude;pressure_sealevel;temperature;humidity
76687;BME280;65615;47.378;19.344;2023-03-23T05:26:09;100117.56;;;4.69;100.00
76687;BME280;65615;47.378;19.344;2023-03-23T05:30:13;100117.56;;;4.69;100.00
76687;BME280;65615;47.378;19.344;2023-03-23T05:34:19;100116.44;;;4.29;100.00
76687;BME280;65615;47.378;19.344;2023-03-23T05:38:23;100123.06;;;4.55;100.00
76687;BME280;65615;47.378;19.344;2023-03-23T05:42:26;100119.09;;;4.72;100.00
76687;BME280;65615;47.378;19.344;2023-03-23T05:46:31;100117.47;;;4.91;100.00
76687;BME280;65615;47.378;19.344;2023-03-23T05:50:41;100118.59;;;5.09;100.00
76687;BME280;65615;47.378;19.344;2023-03-23T06:11:06;100104.16;;;6.47;96.24
76687;BME280;65615;47.378;19.344;2023-03-23T06:16:00;100101.72;;;7.31;93.27
76687;BME280;65615;47.378;19.344;2023-03-23T06:36:25;100105.16;;;9.22;83.82
76687;BME280;65615;47.378;19.344;2023-03-23T06:50:20;100100.28;;;10.30;78.69
76687;BME280;65615;47.378;19.344;2023-03-23T06:54:48;100118.91;;;10.78;76.34
76687;BME280;65615;47.378;19.344;2023-03-23T06:59:02;100108.88;;;11.13;75.42
76687;BME280;65615;47.378;19.344;2023-03-23T07:03:27;100115.00;;;11.38;73.78
76687;BME280;65615;47.378;19.344;2023-03-23T07:07:38;100113.31;;;11.61;71.22
76687;BME280;65615;47.378;19.344;2023-03-23T07:11:44;100111.63;;;11.92;71.12
76687;BME280;65615;47.378;19.344;2023-03-23T07:15:59;100105.22;;;12.34;69.80
76687;BME280;65615;47.378;19.344;2023-03-23T07:49:51;100120.88;;;14.60;61.89
76687;BME280;65615;47.378;19.344;2023-03-23T07:53:55;100133.31;;;14.74;61.48
76687;BME280;65615;47.378;19.344;2023-03-23T07:58:06;100133.97;;;14.97;60.17
76687;BME280;65615;47.378;19.344;2023-03-23T08:02:16;100136.34;;;15.49;58.43
76687;BME280;65615;47.378;19.344;2023-03-23T08:06:26;100131.47;;;15.80;57.48
76687;BME280;65615;47.378;19.344;2023-03-23T08:10:31;100138.56;;;15.94;55.82
76687;BME280;65615;47.378;19.344;2023-03-23T08:14:34;100141.91;;;16.03;55.43
76687;BME280;65615;47.378;19.344;2023-03-23T08:18:42;100136.25;;;16.19;54.63
76687;BME280;65615;47.378;19.344;2023-03-23T08:22:49;100136.06;;;16.55;53.66
76687;BME280;65615;47.378;19.344;2023-03-23T08:32:12;100142.84;;;17.31;51.26
76687;BME280;65615;47.378;19.344;2023-03-23T08:37:33;100136.34;;;17.53;49.67
76687;BME280;65615;47.378;19.344;2023-03-23T08:46:57;100138.75;;;18.00;47.11
76687;BME280;65615;47.378;19.344;2023-03-23T08:51:33;100142.94;;;18.60;45.09
76687;BME280;65615;47.378;19.344;2023-03-23T08:56:06;100132.78;;;18.82;44.37
76687;BME280;65615;47.378;19.344;2023-03-23T09:00:21;100146.66;;;19.10;43.74
76687;BME280;65615;47.378;19.344;2023-03-23T09:04:40;100149.75;;;19.38;43.25
76687;BME280;65615;47.378;19.344;2023-03-23T09:08:50;100144.44;;;19.31;42.82
76687;BME280;65615;47.378;19.344;2023-03-23T09:34:23;100133.88;;;20.53;40.17
76687;BME280;65615;47.378;19.344;2023-03-23T09:38:49;100143.16;;;20.69;39.29
76687;BME280;65615;47.378;19.344;2023-03-23T09:52:03;100122.56;;;20.81;37.09
76687;BME280;65615;47.378;19.344;2023-03-23T09:57:00;100120.25;;;19.94;37.99
76687;BME280;65615;47.378;19.344;2023-03-23T10:01:36;100111.66;;;19.85;38.05
76687;BME280;65615;47.378;19.344;2023-03-23T10:06:07;100108.13;;;20.64;36.45
76687;BME280;65615;47.378;19.344;2023-03-23T10:10:23;100096.81;;;21.33;35.75
76687;BME280;65615;47.378;19.344;2023-03-23T10:15:14;100098.63;;;21.50;33.59
76687;BME280;65615;47.378;19.344;2023-03-23T10:24:10;100076.41;;;22.13;33.33
76687;BME280;65615;47.378;19.344;2023-03-23T10:28:45;100077.13;;;21.73;33.73
76687;BME280;65615;47.378;19.344;2023-03-23T10:37:38;100077.34;;;21.37;33.33
76687;BME280;65615;47.378;19.344;2023-03-23T10:41:47;100074.72;;;21.19;33.82
76687;BME280;65615;47.378;19.344;2023-03-23T10:46:44;100074.72;;;21.19;33.79
76687;BME280;65615;47.378;19.344;2023-03-23T10:51:22;100079.41;;;21.12;34.30
76687;BME280;65615;47.378;19.344;2023-03-23T10:55:38;100049.75;;;21.30;33.90
76687;BME280;65615;47.378;19.344;2023-03-23T11:00:15;100056.34;;;21.04;34.03
76687;BME280;65615;47.378;19.344;2023-03-23T11:04:37;100045.97;;;21.08;33.87
76687;BME280;65615;47.378;19.344;2023-03-23T11:08:52;100040.75;;;20.83;34.14
76687;BME280;65615;47.378;19.344;2023-03-23T11:13:00;100048.25;;;20.33;34.40
76687;BME280;65615;47.378;19.344;2023-03-23T11:17:20;100033.44;;;20.43;34.93
76687;BME280;65615;47.378;19.344;2023-03-23T11:21:37;100041.38;;;20.38;35.10
76687;BME280;65615;47.378;19.344;2023-03-23T11:25:56;100051.50;;;20.17;35.17
76687;BME280;65615;47.378;19.344;2023-03-23T11:30:09;100050.37;;;19.89;35.76
76687;BME280;65615;47.378;19.344;2023-03-23T11:34:45;100047.25;;;19.92;36.15
76687;BME280;65615;47.378;19.344;2023-03-23T11:38:46;100047.56;;;20.02;35.88
76687;BME280;65615;47.378;19.344;2023-03-23T11:43:12;100048.66;;;19.94;35.55
76687;BME280;65615;47.378;19.344;2023-03-23T11:47:37;100019.31;;;20.36;35.62
76687;BME280;65615;47.378;19.344;2023-03-23T11:52:33;100022.94;;;20.41;35.67
76687;BME280;65615;47.378;19.344;2023-03-23T11:56:57;100016.22;;;21.56;35.32
76687;BME280;65615;47.378;19.344;2023-03-23T12:01:12;100015.72;;;22.05;33.17
76687;BME280;65615;47.378;19.344;2023-03-23T12:06:05;100014.47;;;21.38;34.60
76687;BME280;65615;47.378;19.344;2023-03-23T12:10:43;100021.00;;;20.78;35.54
76687;BME280;65615;47.378;19.344;2023-03-23T12:15:32;100018.84;;;20.39;37.39
76687;BME280;65615;47.378;19.344;2023-03-23T12:24:51;100017.78;;;20.58;36.27
76687;BME280;65615;47.378;19.344;2023-03-23T12:30:07;100005.09;;;21.75;34.34
76687;BME280;65615;47.378;19.344;2023-03-23T12:34:48;100011.09;;;21.54;34.36
76687;BME280;65615;47.378;19.344;2023-03-23T12:44:05;99988.94;;;22.95;32.81
76687;BME280;65615;47.378;19.344;2023-03-23T12:48:53;99980.34;;;24.07;31.05
76687;BME280;65615;47.378;19.344;2023-03-23T13:04:18;99963.87;;;25.15;29.14
76687;BME280;65615;47.378;19.344;2023-03-23T13:09:52;99954.50;;;25.28;28.44
76687;BME280;65615;47.378;19.344;2023-03-23T13:15:07;99949.66;;;24.93;28.90
76687;BME280;65615;47.378;19.344;2023-03-23T13:29:43;99934.91;;;24.21;29.73
76687;BME280;65615;47.378;19.344;2023-03-23T13:53:28;99929.25;;;23.57;30.33
76687;BME280;65615;47.378;19.344;2023-03-23T14:02:47;99922.13;;;22.80;31.80
76687;BME280;65615;47.378;19.344;2023-03-23T14:06:50;99930.44;;;23.28;30.85
76687;BME280;65615;47.378;19.344;2023-03-23T14:11:10;99927.78;;;22.78;31.68
76687;BME280;65615;47.378;19.344;2023-03-23T14:15:13;99928.09;;;23.53;31.08
76687;BME280;65615;47.378;19.344;2023-03-23T14:19:37;99924.09;;;23.78;29.65
76687;BME280;65615;47.378;19.344;2023-03-23T14:23:45;99915.94;;;23.94;29.45
76687;BME280;65615;47.378;19.344;2023-03-23T14:27:54;99915.72;;;24.49;28.45
76687;BME280;65615;47.378;19.344;2023-03-23T14:33:02;99919.22;;;23.75;29.95
76687;BME280;65615;47.378;19.344;2023-03-23T14:37:48;99918.88;;;22.78;30.46
76687;BME280;65615;47.378;19.344;2023-03-23T14:42:05;99914.31;;;23.72;30.20
76687;BME280;65615;47.378;19.344;2023-03-23T14:46:42;99903.66;;;23.82;28.91
76687;BME280;65615;47.378;19.344;2023-03-23T14:50:52;99906.41;;;23.43;29.25
76687;BME280;65615;47.378;19.344;2023-03-23T14:55:20;99911.00;;;22.93;31.04
76687;BME280;65615;47.378;19.344;2023-03-23T14:59:34;99900.34;;;22.37;31.92
76687;BME280;65615;47.378;19.344;2023-03-23T15:03:52;99894.91;;;22.04;32.17
76687;BME280;65615;47.378;19.344;2023-03-23T15:08:05;99904.81;;;22.59;30.99
76687;BME280;65615;47.378;19.344;2023-03-23T15:12:38;99903.00;;;24.18;28.79
76687;BME280;65615;47.378;19.344;2023-03-23T15:17:03;99893.50;;;23.89;28.97
76687;BME280;65615;47.378;19.344;2023-03-23T15:21:30;99898.59;;;22.59;30.51
76687;BME280;65615;47.378;19.344;2023-03-23T15:25:55;99893.06;;;22.65;30.81
76687;BME280;65615;47.378;19.344;2023-03-23T15:34:37;99884.06;;;24.13;29.19
76687;BME280;65615;47.378;19.344;2023-03-23T15:38:46;99889.47;;;22.93;31.09
76687;BME280;65615;47.378;19.344;2023-03-23T15:42:50;99887.78;;;22.26;31.97
76687;BME280;65615;47.378;19.344;2023-03-23T15:47:17;99877.06;;;21.46;33.41
